createdAt,value
2019-02-20T00:44:58.482Z,20.73
2019-02-20T00:49:54.531Z,17.57
2019-02-20T01:30:50.512Z,16.67
2019-02-20T01:35:46.204Z,15.47
2019-02-20T03:57:58.856Z,19.70
2019-02-20T04:02:54.535Z,22.03
2019-02-20T06:04:49.743Z,29.67
2019-02-20T06:09:45.403Z,25.67
2019-02-20T06:14:41.307Z,26.00
2019-02-20T06:19:36.998Z,24.73
2019-02-20T06:24:33.278Z,23.83
2019-02-20T06:29:29.171Z,23.77
2019-02-20T06:34:24.918Z,25.90
2019-02-20T06:39:20.925Z,29.57
2019-02-20T06:44:16.816Z,26.63
2019-02-20T06:49:12.490Z,29.70
2019-02-20T06:54:08.391Z,27.00
2019-02-20T06:59:04.093Z,28.20
2019-02-20T07:04:00.055Z,27.63
2019-02-20T07:09:10.152Z,33.30
2019-02-20T07:14:07.727Z,29.03
2019-02-20T07:19:05.533Z,40.33
2019-02-20T07:24:06.551Z,24.93
2019-02-20T07:29:04.274Z,27.67
2019-02-20T07:34:00.389Z,30.00
2019-02-20T07:38:56.075Z,26.57
2019-02-20T07:43:52.523Z,25.43
2019-02-20T07:48:48.201Z,29.40
2019-02-20T07:53:44.602Z,28.57
2019-02-20T07:58:40.273Z,26.90
2019-02-20T08:03:36.159Z,29.83
2019-02-20T08:08:31.841Z,27.27
2019-02-20T08:13:27.902Z,27.57
2019-02-20T08:18:23.579Z,27.53
2019-02-20T08:23:19.783Z,27.30
2019-02-20T08:28:16.098Z,27.70
2019-02-20T08:33:11.954Z,25.30
2019-02-20T08:38:07.651Z,26.20
2019-02-20T08:43:03.885Z,26.70
2019-02-20T08:47:59.780Z,27.10
2019-02-20T08:52:56.084Z,26.53
2019-02-20T08:57:51.763Z,28.63
2019-02-20T09:02:47.724Z,26.30
2019-02-20T09:07:43.567Z,26.57
2019-02-20T09:12:39.560Z,27.37
2019-02-20T09:17:35.257Z,28.57
2019-02-20T09:22:31.619Z,26.13
2019-02-20T09:27:27.665Z,26.23
2019-02-20T09:32:23.631Z,31.60
2019-02-20T09:37:19.519Z,28.00
2019-02-20T09:42:15.419Z,26.53
2019-02-20T09:47:11.118Z,24.27
2019-02-20T09:52:07.096Z,25.37
2019-02-20T09:57:02.765Z,25.40
2019-02-20T10:01:59.110Z,23.97
2019-02-20T10:06:54.874Z,28.47
2019-02-20T10:11:50.849Z,27.57
2019-02-20T10:16:46.521Z,22.60
2019-02-20T10:21:42.723Z,26.60
2019-02-20T10:26:38.395Z,24.90
2019-02-20T10:31:34.790Z,24.40
2019-02-20T10:36:30.465Z,24.70
2019-02-20T10:41:26.509Z,24.23
2019-02-20T10:46:22.205Z,24.17
2019-02-20T10:51:18.054Z,24.83
2019-02-20T10:56:13.743Z,22.17
2019-02-20T11:01:09.719Z,24.30
2019-02-20T11:06:05.404Z,22.20
2019-02-20T11:11:01.290Z,22.67
2019-02-20T11:15:58.842Z,21.03
2019-02-20T11:20:54.921Z,22.27
2019-02-20T11:25:51.382Z,25.07
2019-02-20T11:30:47.516Z,22.53
2019-02-20T11:35:43.200Z,20.20
2019-02-20T11:40:39.179Z,18.30
2019-02-20T11:45:34.875Z,19.85
2019-02-20T11:50:31.159Z,13.50
2019-02-20T11:55:26.842Z,18.05
2019-02-20T12:00:22.717Z,19.37
2019-02-20T12:05:18.407Z,20.10
2019-02-20T12:10:15.138Z,16.77
2019-02-20T12:15:10.908Z,17.23
2019-02-20T13:06:30.692Z,15.97
2019-02-20T13:11:26.390Z,14.17
2019-02-20T15:44:04.687Z,10.30
2019-02-20T15:49:20.795Z,12.60
2019-02-20T15:54:18.643Z,9.17
2019-02-20T16:14:25.865Z,10.63
2019-02-20T16:19:21.649Z,10.50
2019-02-20T16:29:19.725Z,13.10
2019-02-20T17:46:45.765Z,11.90
2019-02-20T17:51:41.544Z,10.47
2019-02-20T18:06:41.786Z,7.10
2019-02-20T18:11:37.454Z,8.97
2019-02-20T18:36:55.188Z,10.33
2019-02-20T18:47:00.175Z,11.07
2019-02-20T18:51:56.294Z,6.80
2019-02-20T18:56:52.136Z,8.60
2019-02-20T19:01:47.855Z,12.57
2019-02-20T19:12:06.237Z,7.17
2019-02-20T19:17:22.466Z,9.83
2019-02-20T19:28:01.575Z,7.03
2019-02-20T19:38:50.139Z,5.53
2019-02-20T20:05:41.400Z,8.40
2019-02-20T20:10:57.450Z,9.20
2019-02-20T20:16:13.203Z,7.30
2019-02-20T20:21:28.896Z,7.63
2019-02-20T20:26:47.194Z,7.23
2019-02-20T20:32:02.443Z,7.87
2019-02-20T20:42:51.783Z,6.37
2019-02-20T20:48:11.831Z,7.23
2019-02-20T20:58:48.517Z,7.20
2019-02-20T21:04:04.266Z,7.50
2019-02-20T21:14:43.727Z,7.10
2019-02-20T21:25:22.845Z,9.67
2019-02-20T21:30:38.556Z,6.63
2019-02-20T21:35:54.581Z,6.93
2019-02-20T21:46:41.709Z,8.77
2019-02-20T21:51:57.636Z,6.30
2019-02-20T22:02:41.824Z,10.00
2019-02-20T22:07:57.616Z,8.00
2019-02-20T22:13:13.469Z,7.40
2019-02-20T22:23:52.574Z,5.87
2019-02-20T22:29:08.542Z,6.57
2019-02-20T22:34:24.537Z,7.47
2019-02-20T22:39:40.423Z,7.77
2019-02-20T22:44:56.301Z,9.20
2019-02-20T22:50:14.639Z,7.70
2019-02-20T22:55:30.362Z,7.77
2019-02-20T23:06:17.231Z,5.93
2019-02-20T23:11:32.954Z,6.47
2019-02-20T23:16:28.637Z,11.43
